sensor_id;sensor_type;location;lat;lon;timestamp;P1;durP1;ratioP1;P2;durP2;ratioP2
10801;SDS011;5453;50.852;7.102;2024-03-02T00:00:37;0.95;;;0.80;;
10801;SDS011;5453;50.852;7.102;2024-03-02T00:03:10;1.00;;;0.73;;
10801;SDS011;5453;50.852;7.102;2024-03-02T00:05:49;1.10;;;1.00;;
10801;SDS011;5453;50.852;7.102;2024-03-02T00:08:23;0.75;;;0.73;;
10801;SDS011;5453;50.852;7.102;2024-03-02T00:10:57;1.15;;;0.90;;
10801;SDS011;5453;50.852;7.102;2024-03-02T00:13:31;1.30;;;0.73;;
10801;SDS011;5453;50.852;7.102;2024-03-02T00:16:08;1.15;;;0.90;;
10801;SDS011;5453;50.852;7.102;2024-03-02T00:18:41;2.15;;;1.10;;
10801;SDS011;5453;50.852;7.102;2024-03-02T00:21:15;3.42;;;0.95;;
10801;SDS011;5453;50.852;7.102;2024-03-02T00:23:50;2.35;;;0.80;;
10801;SDS011;5453;50.852;7.102;2024-03-02T00:26:23;1.08;;;0.82;;
10801;SDS011;5453;50.852;7.102;2024-03-02T00:28:56;3.33;;;1.10;;
10801;SDS011;5453;50.852;7.102;2024-03-02T00:31:28;2.38;;;0.88;;
10801;SDS011;5453;50.852;7.102;2024-03-02T00:34:00;0.80;;;0.68;;
10801;SDS011;5453;50.852;7.102;2024-03-02T00:36:39;2.45;;;0.93;;
10801;SDS011;5453;50.852;7.102;2024-03-02T00:39:11;1.48;;;0.85;;
10801;SDS011;5453;50.852;7.102;2024-03-02T00:41:50;2.28;;;1.05;;
10801;SDS011;5453;50.852;7.102;2024-03-02T00:44:23;3.20;;;1.20;;
10801;SDS011;5453;50.852;7.102;2024-03-02T00:46:59;2.63;;;0.98;;
10801;SDS011;5453;50.852;7.102;2024-03-02T00:49:32;2.67;;;1.02;;
10801;SDS011;5453;50.852;7.102;2024-03-02T00:52:06;2.22;;;1.30;;
10801;SDS011;5453;50.852;7.102;2024-03-02T00:54:39;2.05;;;0.82;;
10801;SDS011;5453;50.852;7.102;2024-03-02T00:57:11;1.83;;;0.80;;
10801;SDS011;5453;50.852;7.102;2024-03-02T00:59:47;3.25;;;1.30;;
10801;SDS011;5453;50.852;7.102;2024-03-02T01:02:19;1.77;;;1.67;;
10801;SDS011;5453;50.852;7.102;2024-03-02T01:04:51;2.20;;;1.13;;
10801;SDS011;5453;50.852;7.102;2024-03-02T01:07:25;3.20;;;1.45;;
10801;SDS011;5453;50.852;7.102;2024-03-02T01:10:01;2.38;;;1.02;;
10801;SDS011;5453;50.852;7.102;2024-03-02T01:12:33;1.80;;;1.45;;
10801;SDS011;5453;50.852;7.102;2024-03-02T01:15:06;1.40;;;1.10;;
10801;SDS011;5453;50.852;7.102;2024-03-02T01:17:40;0.73;;;0.73;;
10801;SDS011;5453;50.852;7.102;2024-03-02T01:20:12;1.08;;;0.98;;
10801;SDS011;5453;50.852;7.102;2024-03-02T01:22:46;1.38;;;0.82;;
10801;SDS011;5453;50.852;7.102;2024-03-02T01:25:19;0.77;;;0.77;;
10801;SDS011;5453;50.852;7.102;2024-03-02T01:27:51;1.80;;;0.90;;
10801;SDS011;5453;50.852;7.102;2024-03-02T01:30:23;0.73;;;0.65;;
10801;SDS011;5453;50.852;7.102;2024-03-02T01:32:56;0.80;;;0.80;;
10801;SDS011;5453;50.852;7.102;2024-03-02T01:35:29;1.95;;;1.05;;
10801;SDS011;5453;50.852;7.102;2024-03-02T01:38:03;1.98;;;0.88;;
10801;SDS011;5453;50.852;7.102;2024-03-02T01:40:37;2.88;;;0.95;;
10801;SDS011;5453;50.852;7.102;2024-03-02T01:43:10;1.30;;;0.95;;
10801;SDS011;5453;50.852;7.102;2024-03-02T01:45:42;5.57;;;1.30;;
10801;SDS011;5453;50.852;7.102;2024-03-02T01:48:15;1.10;;;0.90;;
10801;SDS011;5453;50.852;7.102;2024-03-02T01:50:47;1.27;;;0.65;;
10801;SDS011;5453;50.852;7.102;2024-03-02T01:53:21;0.98;;;0.80;;
10801;SDS011;5453;50.852;7.102;2024-03-02T01:55:53;2.28;;;0.90;;
10801;SDS011;5453;50.852;7.102;2024-03-02T01:58:26;1.20;;;0.77;;
10801;SDS011;5453;50.852;7.102;2024-03-02T02:00:59;2.17;;;0.88;;
10801;SDS011;5453;50.852;7.102;2024-03-02T02:03:31;1.15;;;0.98;;
10801;SDS011;5453;50.852;7.102;2024-03-02T02:06:07;1.08;;;0.70;;
10801;SDS011;5453;50.852;7.102;2024-03-02T02:08:41;1.52;;;0.80;;
10801;SDS011;5453;50.852;7.102;2024-03-02T02:11:14;1.02;;;0.80;;
10801;SDS011;5453;50.852;7.102;2024-03-02T02:13:47;0.63;;;0.63;;
10801;SDS011;5453;50.852;7.102;2024-03-02T02:16:19;1.05;;;0.80;;
10801;SDS011;5453;50.852;7.102;2024-03-02T02:18:52;0.80;;;0.73;;
10801;SDS011;5453;50.852;7.102;2024-03-02T02:21:27;2.28;;;0.80;;
10801;SDS011;5453;50.852;7.102;2024-03-02T02:23:59;1.83;;;1.00;;
10801;SDS011;5453;50.852;7.102;2024-03-02T02:26:33;1.52;;;0.73;;
10801;SDS011;5453;50.852;7.102;2024-03-02T02:29:06;0.68;;;0.68;;
10801;SDS011;5453;50.852;7.102;2024-03-02T02:31:38;4.15;;;1.13;;
10801;SDS011;5453;50.852;7.102;2024-03-02T02:34:15;0.63;;;0.63;;
10801;SDS011;5453;50.852;7.102;2024-03-02T02:36:49;1.05;;;0.95;;
10801;SDS011;5453;50.852;7.102;2024-03-02T02:39:21;0.80;;;0.80;;
10801;SDS011;5453;50.852;7.102;2024-03-02T02:41:54;1.50;;;0.90;;
10801;SDS011;5453;50.852;7.102;2024-03-02T02:44:26;2.95;;;0.95;;
10801;SDS011;5453;50.852;7.102;2024-03-02T02:46:59;1.00;;;0.80;;
10801;SDS011;5453;50.852;7.102;2024-03-02T02:49:31;1.23;;;0.70;;
10801;SDS011;5453;50.852;7.102;2024-03-02T02:52:05;1.70;;;1.15;;
10801;SDS011;5453;50.852;7.102;2024-03-02T02:54:38;1.10;;;1.02;;
10801;SDS011;5453;50.852;7.102;2024-03-02T02:57:10;3.00;;;0.85;;
10801;SDS011;5453;50.852;7.102;2024-03-02T02:59:42;3.92;;;0.70;;
10801;SDS011;5453;50.852;7.102;2024-03-02T03:02:15;0.75;;;0.75;;
10801;SDS011;5453;50.852;7.102;2024-03-02T03:04:47;1.23;;;0.70;;
10801;SDS011;5453;50.852;7.102;2024-03-02T03:07:21;0.88;;;0.70;;
10801;SDS011;5453;50.852;7.102;2024-03-02T03:09:53;0.82;;;0.82;;
10801;SDS011;5453;50.852;7.102;2024-03-02T03:12:26;0.43;;;0.43;;
10801;SDS011;5453;50.852;7.102;2024-03-02T03:14:58;0.85;;;0.60;;
10801;SDS011;5453;50.852;7.102;2024-03-02T03:17:31;0.55;;;0.55;;
10801;SDS011;5453;50.852;7.102;2024-03-02T03:20:07;1.35;;;1.02;;
10801;SDS011;5453;50.852;7.102;2024-03-02T03:22:42;0.70;;;0.70;;
10801;SDS011;5453;50.852;7.102;2024-03-02T03:25:14;0.95;;;0.85;;
10801;SDS011;5453;50.852;7.102;2024-03-02T03:27:47;0.95;;;0.85;;
10801;SDS011;5453;50.852;7.102;2024-03-02T03:30:19;0.82;;;0.82;;
10801;SDS011;5453;50.852;7.102;2024-03-02T03:32:51;1.08;;;0.68;;
10801;SDS011;5453;50.852;7.102;2024-03-02T03:35:24;1.30;;;0.40;;
10801;SDS011;5453;50.852;7.102;2024-03-02T03:37:58;1.75;;;0.60;;
10801;SDS011;5453;50.852;7.102;2024-03-02T03:40:30;0.63;;;0.63;;
10801;SDS011;5453;50.852;7.102;2024-03-02T03:43:03;1.30;;;0.88;;
10801;SDS011;5453;50.852;7.102;2024-03-02T03:45:35;2.88;;;1.17;;
10801;SDS011;5453;50.852;7.102;2024-03-02T03:48:08;0.95;;;0.70;;
10801;SDS011;5453;50.852;7.102;2024-03-02T03:50:40;4.90;;;0.70;;
10801;SDS011;5453;50.852;7.102;2024-03-02T03:53:14;2.45;;;1.10;;
10801;SDS011;5453;50.852;7.102;2024-03-02T03:55:46;1.55;;;0.82;;
10801;SDS011;5453;50.852;7.102;2024-03-02T03:58:19;1.00;;;0.55;;
10801;SDS011;5453;50.852;7.102;2024-03-02T04:00:52;2.22;;;1.05;;
10801;SDS011;5453;50.852;7.102;2024-03-02T04:03:24;1.70;;;0.75;;
10801;SDS011;5453;50.852;7.102;2024-03-02T04:05:56;1.38;;;0.93;;
10801;SDS011;5453;50.852;7.102;2024-03-02T04:08:30;0.75;;;0.73;;
10801;SDS011;5453;50.852;7.102;2024-03-02T04:11:02;0.85;;;0.73;;
10801;SDS011;5453;50.852;7.102;2024-03-02T04:13:36;2.70;;;1.40;;
10801;SDS011;5453;50.852;7.102;2024-03-02T04:16:09;0.90;;;0.82;;
10801;SDS011;5453;50.852;7.102;2024-03-02T04:18:42;1.58;;;1.30;;
10801;SDS011;5453;50.852;7.102;2024-03-02T04:21:14;1.88;;;1.08;;
10801;SDS011;5453;50.852;7.102;2024-03-02T04:23:48;1.27;;;1.00;;
10801;SDS011;5453;50.852;7.102;2024-03-02T04:26:21;2.60;;;1.02;;
10801;SDS011;5453;50.852;7.102;2024-03-02T04:28:53;1.17;;;1.02;;
10801;SDS011;5453;50.852;7.102;2024-03-02T04:31:25;3.42;;;1.52;;
10801;SDS011;5453;50.852;7.102;2024-03-02T04:33:58;2.00;;;1.23;;
10801;SDS011;5453;50.852;7.102;2024-03-02T04:36:30;3.47;;;1.55;;
10801;SDS011;5453;50.852;7.102;2024-03-02T04:39:04;5.28;;;1.77;;
10801;SDS011;5453;50.852;7.102;2024-03-02T04:41:39;2.40;;;1.52;;
10801;SDS011;5453;50.852;7.102;2024-03-02T04:44:12;3.88;;;1.92;;
10801;SDS011;5453;50.852;7.102;2024-03-02T04:46:44;2.95;;;1.50;;
10801;SDS011;5453;50.852;7.102;2024-03-02T04:49:17;2.42;;;1.30;;
10801;SDS011;5453;50.852;7.102;2024-03-02T04:51:49;2.38;;;1.48;;
10801;SDS011;5453;50.852;7.102;2024-03-02T04:54:26;1.45;;;1.10;;
10801;SDS011;5453;50.852;7.102;2024-03-02T04:56:58;1.38;;;0.90;;
10801;SDS011;5453;50.852;7.102;2024-03-02T04:59:30;2.80;;;1.05;;
10801;SDS011;5453;50.852;7.102;2024-03-02T05:02:03;1.27;;;1.08;;
10801;SDS011;5453;50.852;7.102;2024-03-02T05:04:35;1.50;;;0.93;;
10801;SDS011;5453;50.852;7.102;2024-03-02T05:07:08;2.15;;;1.13;;
10801;SDS011;5453;50.852;7.102;2024-03-02T05:09:41;3.38;;;1.02;;
10801;SDS011;5453;50.852;7.102;2024-03-02T05:12:14;0.65;;;0.65;;
10801;SDS011;5453;50.852;7.102;2024-03-02T05:15:11;1.63;;;0.93;;
10801;SDS011;5453;50.852;7.102;2024-03-02T05:17:44;1.52;;;1.33;;
10801;SDS011;5453;50.852;7.102;2024-03-02T05:20:20;1.80;;;1.10;;
10801;SDS011;5453;50.852;7.102;2024-03-02T05:22:52;1.33;;;1.20;;
10801;SDS011;5453;50.852;7.102;2024-03-02T05:25:26;1.52;;;1.25;;
10801;SDS011;5453;50.852;7.102;2024-03-02T05:27:59;2.08;;;1.70;;
10801;SDS011;5453;50.852;7.102;2024-03-02T05:30:31;1.58;;;1.35;;
10801;SDS011;5453;50.852;7.102;2024-03-02T05:33:04;4.43;;;1.50;;
10801;SDS011;5453;50.852;7.102;2024-03-02T05:35:36;4.00;;;2.25;;
10801;SDS011;5453;50.852;7.102;2024-03-02T05:38:08;4.38;;;2.72;;
10801;SDS011;5453;50.852;7.102;2024-03-02T05:40:42;2.00;;;1.50;;
10801;SDS011;5453;50.852;7.102;2024-03-02T05:43:14;4.32;;;1.40;;
10801;SDS011;5453;50.852;7.102;2024-03-02T05:45:47;2.30;;;1.52;;
10801;SDS011;5453;50.852;7.102;2024-03-02T05:48:19;4.13;;;1.73;;
10801;SDS011;5453;50.852;7.102;2024-03-02T05:50:52;2.05;;;1.23;;
10801;SDS011;5453;50.852;7.102;2024-03-02T05:53:24;3.30;;;1.50;;
10801;SDS011;5453;50.852;7.102;2024-03-02T05:55:58;2.03;;;1.48;;
10801;SDS011;5453;50.852;7.102;2024-03-02T05:58:30;4.10;;;1.65;;
10801;SDS011;5453;50.852;7.102;2024-03-02T06:01:16;4.72;;;2.08;;
10801;SDS011;5453;50.852;7.102;2024-03-02T06:03:49;2.88;;;2.00;;
10801;SDS011;5453;50.852;7.102;2024-03-02T06:06:21;3.55;;;2.15;;
10801;SDS011;5453;50.852;7.102;2024-03-02T06:08:54;2.85;;;1.35;;
10801;SDS011;5453;50.852;7.102;2024-03-02T06:11:28;6.38;;;2.20;;
10801;SDS011;5453;50.852;7.102;2024-03-02T06:14:00;6.18;;;2.53;;
10801;SDS011;5453;50.852;7.102;2024-03-02T06:16:32;3.80;;;1.85;;
10801;SDS011;5453;50.852;7.102;2024-03-02T06:19:05;5.90;;;1.70;;
10801;SDS011;5453;50.852;7.102;2024-03-02T06:21:38;5.32;;;2.30;;
10801;SDS011;5453;50.852;7.102;2024-03-02T06:24:10;5.63;;;2.55;;
10801;SDS011;5453;50.852;7.102;2024-03-02T06:26:44;5.50;;;2.00;;
10801;SDS011;5453;50.852;7.102;2024-03-02T06:29:16;3.63;;;2.22;;
10801;SDS011;5453;50.852;7.102;2024-03-02T06:31:48;3.90;;;1.80;;
10801;SDS011;5453;50.852;7.102;2024-03-02T06:34:21;4.10;;;1.40;;
10801;SDS011;5453;50.852;7.102;2024-03-02T06:36:53;5.78;;;2.03;;
10801;SDS011;5453;50.852;7.102;2024-03-02T06:39:26;4.10;;;1.65;;
10801;SDS011;5453;50.852;7.102;2024-03-02T06:41:59;4.88;;;1.65;;
10801;SDS011;5453;50.852;7.102;2024-03-02T06:44:32;2.95;;;1.45;;
10801;SDS011;5453;50.852;7.102;2024-03-02T06:47:05;3.40;;;1.45;;
10801;SDS011;5453;50.852;7.102;2024-03-02T06:49:38;2.72;;;1.55;;
10801;SDS011;5453;50.852;7.102;2024-03-02T06:52:10;5.65;;;1.70;;
10801;SDS011;5453;50.852;7.102;2024-03-02T06:54:43;3.40;;;1.60;;
10801;SDS011;5453;50.852;7.102;2024-03-02T06:57:17;1.42;;;1.33;;
10801;SDS011;5453;50.852;7.102;2024-03-02T06:59:50;1.83;;;1.42;;
10801;SDS011;5453;50.852;7.102;2024-03-02T07:02:25;3.83;;;1.58;;
10801;SDS011;5453;50.852;7.102;2024-03-02T07:04:58;3.75;;;2.00;;
10801;SDS011;5453;50.852;7.102;2024-03-02T07:07:30;6.88;;;2.10;;
10801;SDS011;5453;50.852;7.102;2024-03-02T07:10:03;3.35;;;1.80;;
10801;SDS011;5453;50.852;7.102;2024-03-02T07:12:39;3.65;;;1.48;;
10801;SDS011;5453;50.852;7.102;2024-03-02T07:15:11;2.42;;;1.50;;
10801;SDS011;5453;50.852;7.102;2024-03-02T07:18:00;3.85;;;1.52;;
10801;SDS011;5453;50.852;7.102;2024-03-02T07:20:32;2.97;;;1.63;;
10801;SDS011;5453;50.852;7.102;2024-03-02T07:23:04;5.47;;;1.75;;
10801;SDS011;5453;50.852;7.102;2024-03-02T07:25:37;2.55;;;1.50;;
10801;SDS011;5453;50.852;7.102;2024-03-02T07:28:11;4.95;;;1.70;;
10801;SDS011;5453;50.852;7.102;2024-03-02T07:33:17;3.85;;;1.60;;
10801;SDS011;5453;50.852;7.102;2024-03-02T07:35:51;2.92;;;1.42;;
10801;SDS011;5453;50.852;7.102;2024-03-02T07:38:25;3.40;;;1.63;;
10801;SDS011;5453;50.852;7.102;2024-03-02T07:40:58;4.10;;;1.30;;
10801;SDS011;5453;50.852;7.102;2024-03-02T07:43:32;3.75;;;1.42;;
10801;SDS011;5453;50.852;7.102;2024-03-02T07:46:04;2.28;;;1.20;;
10801;SDS011;5453;50.852;7.102;2024-03-02T07:48:37;4.35;;;1.52;;
10801;SDS011;5453;50.852;7.102;2024-03-02T07:51:10;4.15;;;1.52;;
10801;SDS011;5453;50.852;7.102;2024-03-02T07:53:44;2.78;;;1.98;;
10801;SDS011;5453;50.852;7.102;2024-03-02T07:56:16;2.58;;;1.55;;
10801;SDS011;5453;50.852;7.102;2024-03-02T07:58:53;3.28;;;1.73;;
10801;SDS011;5453;50.852;7.102;2024-03-02T08:01:27;5.18;;;1.67;;
10801;SDS011;5453;50.852;7.102;2024-03-02T08:04:01;4.20;;;1.52;;
10801;SDS011;5453;50.852;7.102;2024-03-02T08:06:37;3.03;;;1.50;;
10801;SDS011;5453;50.852;7.102;2024-03-02T08:09:09;3.67;;;1.70;;
10801;SDS011;5453;50.852;7.102;2024-03-02T08:11:42;5.05;;;2.45;;
10801;SDS011;5453;50.852;7.102;2024-03-02T08:14:16;2.30;;;1.52;;
10801;SDS011;5453;50.852;7.102;2024-03-02T08:16:48;3.10;;;1.85;;
10801;SDS011;5453;50.852;7.102;2024-03-02T08:19:20;5.55;;;1.67;;
10801;SDS011;5453;50.852;7.102;2024-03-02T08:21:53;2.58;;;1.17;;
10801;SDS011;5453;50.852;7.102;2024-03-02T08:24:25;2.60;;;1.60;;
10801;SDS011;5453;50.852;7.102;2024-03-02T08:26:58;2.42;;;1.30;;
10801;SDS011;5453;50.852;7.102;2024-03-02T08:29:32;2.67;;;1.20;;
10801;SDS011;5453;50.852;7.102;2024-03-02T08:32:05;1.83;;;1.13;;
10801;SDS011;5453;50.852;7.102;2024-03-02T08:34:38;2.35;;;1.13;;
10801;SDS011;5453;50.852;7.102;2024-03-02T08:37:10;2.75;;;1.75;;
10801;SDS011;5453;50.852;7.102;2024-03-02T08:39:42;1.50;;;1.02;;
10801;SDS011;5453;50.852;7.102;2024-03-02T08:42:16;2.85;;;1.42;;
10801;SDS011;5453;50.852;7.102;2024-03-02T08:44:50;2.42;;;1.63;;
10801;SDS011;5453;50.852;7.102;2024-03-02T08:47:23;2.13;;;1.33;;
10801;SDS011;5453;50.852;7.102;2024-03-02T08:49:55;2.58;;;1.17;;
10801;SDS011;5453;50.852;7.102;2024-03-02T08:52:28;2.13;;;1.17;;
10801;SDS011;5453;50.852;7.102;2024-03-02T08:55:00;3.47;;;1.42;;
10801;SDS011;5453;50.852;7.102;2024-03-02T08:57:32;1.90;;;1.00;;
10801;SDS011;5453;50.852;7.102;2024-03-02T09:00:07;2.88;;;0.98;;
10801;SDS011;5453;50.852;7.102;2024-03-02T09:02:41;3.47;;;1.33;;
10801;SDS011;5453;50.852;7.102;2024-03-02T09:05:13;6.03;;;2.22;;
10801;SDS011;5453;50.852;7.102;2024-03-02T09:07:46;2.22;;;1.10;;
10801;SDS011;5453;50.852;7.102;2024-03-02T09:10:18;2.53;;;0.93;;
10801;SDS011;5453;50.852;7.102;2024-03-02T09:12:50;1.60;;;1.00;;
10801;SDS011;5453;50.852;7.102;2024-03-02T09:15:24;1.38;;;1.02;;
10801;SDS011;5453;50.852;7.102;2024-03-02T09:17:57;1.10;;;0.90;;
10801;SDS011;5453;50.852;7.102;2024-03-02T09:20:29;1.95;;;1.08;;
10801;SDS011;5453;50.852;7.102;2024-03-02T09:23:01;0.93;;;0.63;;
10801;SDS011;5453;50.852;7.102;2024-03-02T09:25:34;1.42;;;0.73;;
10801;SDS011;5453;50.852;7.102;2024-03-02T09:28:07;1.85;;;0.93;;
10801;SDS011;5453;50.852;7.102;2024-03-02T09:30:41;4.10;;;1.58;;
10801;SDS011;5453;50.852;7.102;2024-03-02T09:33:13;6.93;;;1.60;;
10801;SDS011;5453;50.852;7.102;2024-03-02T09:35:45;1.23;;;0.82;;
10801;SDS011;5453;50.852;7.102;2024-03-02T09:38:19;3.53;;;1.02;;
10801;SDS011;5453;50.852;7.102;2024-03-02T09:40:52;3.08;;;1.05;;
10801;SDS011;5453;50.852;7.102;2024-03-02T09:43:24;1.17;;;1.00;;
10801;SDS011;5453;50.852;7.102;2024-03-02T09:45:58;1.38;;;1.02;;
10801;SDS011;5453;50.852;7.102;2024-03-02T09:48:31;2.20;;;0.77;;
10801;SDS011;5453;50.852;7.102;2024-03-02T09:51:04;2.53;;;1.17;;
10801;SDS011;5453;50.852;7.102;2024-03-02T09:53:36;1.20;;;0.88;;
10801;SDS011;5453;50.852;7.102;2024-03-02T09:56:09;4.25;;;0.88;;
10801;SDS011;5453;50.852;7.102;2024-03-02T09:58:41;2.15;;;1.00;;
10801;SDS011;5453;50.852;7.102;2024-03-02T10:01:15;0.70;;;0.70;;
10801;SDS011;5453;50.852;7.102;2024-03-02T10:03:47;2.28;;;0.77;;
10801;SDS011;5453;50.852;7.102;2024-03-02T10:06:21;0.90;;;0.63;;
10801;SDS011;5453;50.852;7.102;2024-03-02T10:08:56;1.85;;;0.93;;
10801;SDS011;5453;50.852;7.102;2024-03-02T10:11:29;1.48;;;0.90;;
10801;SDS011;5453;50.852;7.102;2024-03-02T10:14:04;3.60;;;0.70;;
10801;SDS011;5453;50.852;7.102;2024-03-02T10:16:43;1.65;;;0.43;;
10801;SDS011;5453;50.852;7.102;2024-03-02T10:19:20;1.70;;;0.50;;
10801;SDS011;5453;50.852;7.102;2024-03-02T10:21:54;1.58;;;0.45;;
10801;SDS011;5453;50.852;7.102;2024-03-02T10:24:34;2.15;;;0.75;;
10801;SDS011;5453;50.852;7.102;2024-03-02T10:27:15;3.92;;;0.82;;
10801;SDS011;5453;50.852;7.102;2024-03-02T10:29:48;2.70;;;0.77;;
10801;SDS011;5453;50.852;7.102;2024-03-02T10:32:22;2.65;;;0.93;;
10801;SDS011;5453;50.852;7.102;2024-03-02T10:34:57;1.20;;;0.90;;
10801;SDS011;5453;50.852;7.102;2024-03-02T10:37:31;1.00;;;0.88;;
10801;SDS011;5453;50.852;7.102;2024-03-02T10:40:04;0.98;;;0.65;;
10801;SDS011;5453;50.852;7.102;2024-03-02T10:42:38;2.10;;;0.45;;
10801;SDS011;5453;50.852;7.102;2024-03-02T10:45:15;1.25;;;0.73;;
10801;SDS011;5453;50.852;7.102;2024-03-02T10:47:49;1.63;;;0.70;;
10801;SDS011;5453;50.852;7.102;2024-03-02T10:50:22;1.73;;;0.60;;
10801;SDS011;5453;50.852;7.102;2024-03-02T10:52:56;2.28;;;0.80;;
10801;SDS011;5453;50.852;7.102;2024-03-02T10:55:28;0.95;;;0.73;;
10801;SDS011;5453;50.852;7.102;2024-03-02T10:58:00;1.48;;;0.75;;
10801;SDS011;5453;50.852;7.102;2024-03-02T11:00:37;2.72;;;0.77;;
10801;SDS011;5453;50.852;7.102;2024-03-02T11:03:12;3.72;;;0.82;;
10801;SDS011;5453;50.852;7.102;2024-03-02T11:05:45;0.52;;;0.52;;
10801;SDS011;5453;50.852;7.102;2024-03-02T11:08:19;1.48;;;0.68;;
10801;SDS011;5453;50.852;7.102;2024-03-02T11:10:58;2.08;;;0.60;;
10801;SDS011;5453;50.852;7.102;2024-03-02T11:13:42;1.02;;;0.70;;
10801;SDS011;5453;50.852;7.102;2024-03-02T11:16:23;1.52;;;0.63;;
10801;SDS011;5453;50.852;7.102;2024-03-02T11:19:11;1.13;;;0.68;;
10801;SDS011;5453;50.852;7.102;2024-03-02T11:21:44;7.32;;;2.25;;
10801;SDS011;5453;50.852;7.102;2024-03-02T11:24:30;0.88;;;0.80;;
10801;SDS011;5453;50.852;7.102;2024-03-02T11:27:10;1.45;;;0.70;;
10801;SDS011;5453;50.852;7.102;2024-03-02T11:29:43;1.15;;;0.93;;
10801;SDS011;5453;50.852;7.102;2024-03-02T11:32:17;0.98;;;0.88;;
10801;SDS011;5453;50.852;7.102;2024-03-02T11:34:54;3.58;;;0.98;;
10801;SDS011;5453;50.852;7.102;2024-03-02T11:37:27;2.72;;;1.02;;
10801;SDS011;5453;50.852;7.102;2024-03-02T11:40:01;1.02;;;0.93;;
10801;SDS011;5453;50.852;7.102;2024-03-02T11:42:34;3.38;;;1.10;;
10801;SDS011;5453;50.852;7.102;2024-03-02T11:45:10;0.75;;;0.75;;
10801;SDS011;5453;50.852;7.102;2024-03-02T11:47:43;1.90;;;1.10;;
10801;SDS011;5453;50.852;7.102;2024-03-02T11:50:29;3.95;;;1.30;;
10801;SDS011;5453;50.852;7.102;2024-03-02T11:53:08;1.90;;;0.85;;
10801;SDS011;5453;50.852;7.102;2024-03-02T11:55:42;2.50;;;1.00;;
10801;SDS011;5453;50.852;7.102;2024-03-02T11:58:16;2.28;;;0.82;;
10801;SDS011;5453;50.852;7.102;2024-03-02T12:00:50;1.17;;;1.00;;
10801;SDS011;5453;50.852;7.102;2024-03-02T12:03:23;0.80;;;0.63;;
10801;SDS011;5453;50.852;7.102;2024-03-02T12:05:59;0.98;;;0.77;;
10801;SDS011;5453;50.852;7.102;2024-03-02T12:08:31;1.40;;;0.88;;
10801;SDS011;5453;50.852;7.102;2024-03-02T12:11:03;1.20;;;0.75;;
10801;SDS011;5453;50.852;7.102;2024-03-02T12:13:36;1.60;;;0.85;;
10801;SDS011;5453;50.852;7.102;2024-03-02T12:16:09;1.08;;;0.63;;
10801;SDS011;5453;50.852;7.102;2024-03-02T12:18:41;0.90;;;0.57;;
10801;SDS011;5453;50.852;7.102;2024-03-02T12:21:15;1.90;;;0.55;;
10801;SDS011;5453;50.852;7.102;2024-03-02T12:23:48;0.85;;;0.47;;
10801;SDS011;5453;50.852;7.102;2024-03-02T12:26:21;1.42;;;0.70;;
10801;SDS011;5453;50.852;7.102;2024-03-02T12:28:54;1.05;;;0.70;;
10801;SDS011;5453;50.852;7.102;2024-03-02T12:31:27;1.58;;;0.90;;
10801;SDS011;5453;50.852;7.102;2024-03-02T12:33:59;1.33;;;0.70;;
10801;SDS011;5453;50.852;7.102;2024-03-02T12:36:38;0.98;;;0.80;;
10801;SDS011;5453;50.852;7.102;2024-03-02T12:39:11;0.40;;;0.40;;
10801;SDS011;5453;50.852;7.102;2024-03-02T12:41:44;1.15;;;0.80;;
10801;SDS011;5453;50.852;7.102;2024-03-02T12:44:17;2.03;;;1.00;;
10801;SDS011;5453;50.852;7.102;2024-03-02T12:46:50;1.25;;;0.93;;
10801;SDS011;5453;50.852;7.102;2024-03-02T12:49:26;0.98;;;0.63;;
10801;SDS011;5453;50.852;7.102;2024-03-02T12:52:02;1.23;;;0.70;;
10801;SDS011;5453;50.852;7.102;2024-03-02T12:54:35;1.13;;;0.80;;
10801;SDS011;5453;50.852;7.102;2024-03-02T12:57:08;0.60;;;0.60;;
10801;SDS011;5453;50.852;7.102;2024-03-02T12:59:40;0.60;;;0.60;;
10801;SDS011;5453;50.852;7.102;2024-03-02T13:02:17;0.90;;;0.68;;
10801;SDS011;5453;50.852;7.102;2024-03-02T13:04:53;1.67;;;0.77;;
10801;SDS011;5453;50.852;7.102;2024-03-02T13:07:30;2.20;;;0.70;;
10801;SDS011;5453;50.852;7.102;2024-03-02T13:10:04;0.85;;;0.70;;
10801;SDS011;5453;50.852;7.102;2024-03-02T13:12:37;2.40;;;0.93;;
10801;SDS011;5453;50.852;7.102;2024-03-02T13:15:10;3.58;;;0.82;;
10801;SDS011;5453;50.852;7.102;2024-03-02T13:17:42;0.63;;;0.63;;
10801;SDS011;5453;50.852;7.102;2024-03-02T13:20:16;0.75;;;0.70;;
10801;SDS011;5453;50.852;7.102;2024-03-02T13:22:51;1.25;;;0.80;;
10801;SDS011;5453;50.852;7.102;2024-03-02T13:25:27;1.38;;;0.60;;
10801;SDS011;5453;50.852;7.102;2024-03-02T13:28:00;0.50;;;0.50;;
10801;SDS011;5453;50.852;7.102;2024-03-02T13:30:33;1.67;;;0.70;;
10801;SDS011;5453;50.852;7.102;2024-03-02T13:33:06;1.67;;;0.93;;
10801;SDS011;5453;50.852;7.102;2024-03-02T13:35:38;1.15;;;0.77;;
10801;SDS011;5453;50.852;7.102;2024-03-02T13:38:12;0.88;;;0.73;;
10801;SDS011;5453;50.852;7.102;2024-03-02T13:40:45;0.52;;;0.50;;
10801;SDS011;5453;50.852;7.102;2024-03-02T13:43:18;0.63;;;0.55;;
10801;SDS011;5453;50.852;7.102;2024-03-02T13:45:50;1.65;;;0.50;;
10801;SDS011;5453;50.852;7.102;2024-03-02T13:48:23;0.40;;;0.40;;
10801;SDS011;5453;50.852;7.102;2024-03-02T13:50:56;0.63;;;0.60;;
10801;SDS011;5453;50.852;7.102;2024-03-02T13:53:31;0.70;;;0.70;;
10801;SDS011;5453;50.852;7.102;2024-03-02T13:56:03;0.68;;;0.68;;
10801;SDS011;5453;50.852;7.102;2024-03-02T13:58:37;0.98;;;0.80;;
10801;SDS011;5453;50.852;7.102;2024-03-02T14:01:09;0.55;;;0.50;;
10801;SDS011;5453;50.852;7.102;2024-03-02T14:03:42;0.55;;;0.55;;
10801;SDS011;5453;50.852;7.102;2024-03-02T14:06:14;3.33;;;1.02;;
10801;SDS011;5453;50.852;7.102;2024-03-02T14:08:48;1.73;;;0.70;;
10801;SDS011;5453;50.852;7.102;2024-03-02T14:11:20;1.42;;;0.70;;
10801;SDS011;5453;50.852;7.102;2024-03-02T14:13:53;0.90;;;0.70;;
10801;SDS011;5453;50.852;7.102;2024-03-02T14:16:27;0.50;;;0.50;;
10801;SDS011;5453;50.852;7.102;2024-03-02T14:18:59;1.33;;;0.93;;
10801;SDS011;5453;50.852;7.102;2024-03-02T14:21:35;1.77;;;0.77;;
10801;SDS011;5453;50.852;7.102;2024-03-02T14:24:09;1.42;;;1.02;;
10801;SDS011;5453;50.852;7.102;2024-03-02T14:26:41;1.65;;;0.85;;
10801;SDS011;5453;50.852;7.102;2024-03-02T14:29:14;1.20;;;0.85;;
10801;SDS011;5453;50.852;7.102;2024-03-02T14:31:46;0.90;;;0.65;;
10801;SDS011;5453;50.852;7.102;2024-03-02T14:34:18;2.15;;;0.90;;
10801;SDS011;5453;50.852;7.102;2024-03-02T14:36:51;0.77;;;0.68;;
10801;SDS011;5453;50.852;7.102;2024-03-02T14:39:24;1.35;;;0.90;;
10801;SDS011;5453;50.852;7.102;2024-03-02T14:41:57;1.13;;;0.70;;
10801;SDS011;5453;50.852;7.102;2024-03-02T14:44:30;1.73;;;0.70;;
10801;SDS011;5453;50.852;7.102;2024-03-02T14:47:02;1.25;;;1.10;;
10801;SDS011;5453;50.852;7.102;2024-03-02T14:49:38;0.63;;;0.63;;
10801;SDS011;5453;50.852;7.102;2024-03-02T14:52:12;1.02;;;0.90;;
10801;SDS011;5453;50.852;7.102;2024-03-02T14:54:46;0.90;;;0.52;;
10801;SDS011;5453;50.852;7.102;2024-03-02T14:57:18;3.63;;;0.80;;
10801;SDS011;5453;50.852;7.102;2024-03-02T14:59:50;0.40;;;0.40;;
10801;SDS011;5453;50.852;7.102;2024-03-02T15:02:24;0.65;;;0.43;;
10801;SDS011;5453;50.852;7.102;2024-03-02T15:04:58;0.80;;;0.75;;
10801;SDS011;5453;50.852;7.102;2024-03-02T15:07:31;1.70;;;0.65;;
10801;SDS011;5453;50.852;7.102;2024-03-02T15:10:06;1.13;;;0.73;;
10801;SDS011;5453;50.852;7.102;2024-03-02T15:12:39;0.40;;;0.40;;
10801;SDS011;5453;50.852;7.102;2024-03-02T15:15:11;4.13;;;0.80;;
10801;SDS011;5453;50.852;7.102;2024-03-02T15:17:47;1.73;;;0.77;;
10801;SDS011;5453;50.852;7.102;2024-03-02T15:20:19;0.82;;;0.65;;
10801;SDS011;5453;50.852;7.102;2024-03-02T15:22:52;0.82;;;0.75;;
10801;SDS011;5453;50.852;7.102;2024-03-02T15:25:26;0.65;;;0.60;;
10801;SDS011;5453;50.852;7.102;2024-03-02T15:27:58;1.20;;;0.57;;
10801;SDS011;5453;50.852;7.102;2024-03-02T15:30:30;1.13;;;0.60;;
10801;SDS011;5453;50.852;7.102;2024-03-02T15:33:03;0.28;;;0.28;;
10801;SDS011;5453;50.852;7.102;2024-03-02T15:35:38;0.40;;;0.40;;
10801;SDS011;5453;50.852;7.102;2024-03-02T15:38:11;3.20;;;0.70;;
10801;SDS011;5453;50.852;7.102;2024-03-02T15:40:46;0.55;;;0.40;;